Time;durP1;ratioP1;P1;durP2;ratioP2;P2;SDS_P1;SDS_P2;PMS_P1;PMS_P2;Temp;Humidity;BMP_temperature;BMP_pressure;BME280_temperature;BME280_humidity;BME280_pressure;Samples;Min_cycle;Max_cycle;Signal;HPM_P1;HPM_P2
2024/01/15 00:01:29;;;;;;;7.07;1.80;;;0.80;99.90;;;;;;5085099;28;20302;-85
2024/01/15 00:03:56;;;;;;;9.87;1.83;;;0.80;99.90;;;;;;5114175;27;20212;-84
2024/01/15 00:06:24;;;;;;;9.37;1.87;;;0.80;99.90;;;;;;5075529;28;20247;-84
2024/01/15 00:08:51;;;;;;;6.73;2.20;;;0.80;99.90;;;;;;5082245;28;20242;-83
2024/01/15 00:11:18;;;;;;;10.47;1.83;;;0.90;99.90;;;;;;5081140;28;20230;-82
2024/01/15 00:13:45;;;;;;;12.20;2.23;;;0.90;99.90;;;;;;5125411;27;20238;-82
2024/01/15 00:16:11;;;;;;;9.43;2.23;;;0.90;99.90;;;;;;5087960;28;20299;-83
2024/01/15 00:18:38;;;;;;;6.93;1.90;;;0.90;99.90;;;;;;5073961;28;20232;-85
2024/01/15 00:21:05;;;;;;;11.03;1.80;;;0.90;99.90;;;;;;5085072;27;20313;-85
2024/01/15 00:23:33;;;;;;;8.53;2.37;;;0.90;99.90;;;;;;5077161;28;20793;-85
2024/01/15 00:26:00;;;;;;;9.83;1.90;;;0.90;99.90;;;;;;5120673;27;20312;-85
2024/01/15 00:28:27;;;;;;;7.83;1.63;;;0.90;99.90;;;;;;5085479;27;20214;-83
2024/01/15 00:30:54;;;;;;;7.33;1.87;;;0.90;99.90;;;;;;5084216;28;20250;-86
2024/01/15 00:33:20;;;;;;;7.03;1.97;;;0.90;99.90;;;;;;5082902;27;20240;-85
2024/01/15 00:35:47;;;;;;;12.50;2.47;;;0.90;99.90;;;;;;5078980;28;20253;-82
2024/01/15 00:38:14;;;;;;;10.47;1.93;;;0.90;99.90;;;;;;5078691;27;20705;-84
2024/01/15 00:40:42;;;;;;;10.23;2.03;;;0.90;99.90;;;;;;5068500;28;20211;-85
2024/01/15 00:43:09;;;;;;;8.77;2.70;;;0.90;99.90;;;;;;5070986;28;20251;-85
2024/01/15 00:45:35;;;;;;;14.00;2.67;;;0.90;99.90;;;;;;5105687;27;20629;-84
2024/01/15 00:48:02;;;;;;;12.00;2.10;;;0.90;99.90;;;;;;5080560;28;20254;-83
2024/01/15 00:50:30;;;;;;;9.63;1.90;;;0.90;99.90;;;;;;5084844;28;20232;-82
2024/01/15 00:52:57;;;;;;;8.77;2.10;;;1.00;99.90;;;;;;5075647;28;20233;-82
2024/01/15 00:55:24;;;;;;;26.30;2.70;;;0.90;99.90;;;;;;5083732;28;20318;-82
2024/01/15 00:57:52;;;;;;;10.13;1.93;;;0.90;99.90;;;;;;5089198;28;20637;-82
2024/01/15 01:00:19;;;;;;;6.87;2.03;;;0.90;99.90;;;;;;5088132;28;20287;-82
2024/01/15 01:02:46;;;;;;;12.03;2.23;;;0.90;99.90;;;;;;5087604;28;20240;-82
2024/01/15 01:05:13;;;;;;;12.03;2.70;;;0.90;99.90;;;;;;5087976;28;20314;-83
2024/01/15 01:07:40;;;;;;;11.47;2.87;;;0.90;99.90;;;;;;5088650;28;20307;-83
2024/01/15 01:10:07;;;;;;;7.47;2.40;;;0.90;99.90;;;;;;5095142;28;20593;-82
2024/01/15 01:12:34;;;;;;;10.07;2.40;;;0.90;99.90;;;;;;5093923;28;20246;-83
2024/01/15 01:15:03;;;;;;;6.57;1.90;;;0.90;99.90;;;;;;5095199;28;20246;-83
2024/01/15 01:17:30;;;;;;;9.57;1.90;;;0.90;99.90;;;;;;5097809;28;20226;-83
2024/01/15 01:19:58;;;;;;;11.03;2.27;;;0.80;99.90;;;;;;5114227;28;20772;-82
2024/01/15 01:22:25;;;;;;;6.93;1.80;;;0.80;99.90;;;;;;5113388;28;20230;-83
2024/01/15 01:24:52;;;;;;;12.30;2.03;;;0.80;99.90;;;;;;5114132;28;20244;-82
2024/01/15 01:27:19;;;;;;;12.57;2.20;;;0.80;99.90;;;;;;5112276;28;20245;-82
2024/01/15 01:29:46;;;;;;;12.73;2.37;;;0.80;99.90;;;;;;5092311;28;20825;-82
2024/01/15 01:32:14;;;;;;;8.13;2.13;;;0.80;99.90;;;;;;5089406;28;20258;-83
2024/01/15 01:34:41;;;;;;;11.67;2.20;;;0.80;99.90;;;;;;5092452;27;20488;-83
2024/01/15 01:37:09;;;;;;;6.83;1.97;;;0.80;99.90;;;;;;5125493;27;20253;-83
2024/01/15 01:39:36;;;;;;;9.37;2.70;;;0.80;99.90;;;;;;5096005;28;20453;-82
2024/01/15 01:42:03;;;;;;;13.00;2.40;;;0.80;99.90;;;;;;5114502;27;20218;-82
2024/01/15 01:44:30;;;;;;;9.77;2.20;;;0.80;99.90;;;;;;5111827;28;20222;-82
2024/01/15 01:46:58;;;;;;;12.97;2.50;;;0.80;99.90;;;;;;5111637;28;20233;-82
2024/01/15 01:49:27;;;;;;;9.90;2.17;;;0.80;99.90;;;;;;5114061;27;21268;-83
2024/01/15 01:51:57;;;;;;;10.00;2.10;;;0.90;99.90;;;;;;5112283;28;20251;-83
2024/01/15 01:54:25;;;;;;;13.90;2.50;;;0.90;99.90;;;;;;5111848;28;20226;-83
2024/01/15 01:56:53;;;;;;;13.43;2.30;;;0.90;99.90;;;;;;5110159;28;20924;-83
2024/01/15 01:59:21;;;;;;;14.17;2.17;;;0.90;99.90;;;;;;5096157;28;20309;-83
2024/01/15 02:01:49;;;;;;;9.97;2.77;;;0.90;99.90;;;;;;5086279;28;20280;-83
2024/01/15 02:04:17;;;;;;;8.50;2.40;;;0.90;99.90;;;;;;5086683;28;20745;-83
2024/01/15 02:06:45;;;;;;;9.67;2.37;;;1.00;99.90;;;;;;5119756;27;20908;-84
2024/01/15 02:09:14;;;;;;;10.37;2.27;;;1.00;99.90;;;;;;5086619;28;20251;-84
2024/01/15 02:11:42;;;;;;;11.17;2.30;;;1.00;99.90;;;;;;5106394;28;20235;-84
2024/01/15 02:14:10;;;;;;;8.90;2.07;;;1.00;99.90;;;;;;5098909;28;20279;-85
2024/01/15 02:16:37;;;;;;;7.00;1.50;;;1.10;99.90;;;;;;5081134;28;20710;-85
2024/01/15 02:19:03;;;;;;;7.60;2.00;;;1.10;99.90;;;;;;5071358;28;20249;-84
2024/01/15 02:21:31;;;;;;;9.67;2.20;;;1.10;99.90;;;;;;5066854;28;20247;-83
2024/01/15 02:24:00;;;;;;;11.97;2.47;;;1.10;99.90;;;;;;5086377;28;20692;-83
2024/01/15 02:26:27;;;;;;;10.37;2.10;;;1.10;99.90;;;;;;5081838;28;20569;-84
2024/01/15 02:28:55;;;;;;;7.60;1.77;;;1.10;99.90;;;;;;5089688;28;20224;-85
2024/01/15 02:31:21;;;;;;;6.37;2.27;;;1.10;99.90;;;;;;5092564;28;20291;-83
2024/01/15 02:33:48;;;;;;;29.10;2.80;;;1.10;99.90;;;;;;5077787;28;20257;-83
2024/01/15 02:36:17;;;;;;;6.90;1.97;;;1.10;99.90;;;;;;5085792;28;20239;-83
2024/01/15 02:38:44;;;;;;;6.60;1.90;;;1.10;99.90;;;;;;5087257;28;20235;-83
2024/01/15 02:41:14;;;;;;;5.63;1.57;;;1.10;99.90;;;;;;5087441;28;20229;-83
2024/01/15 02:43:40;;;;;;;5.33;2.20;;;1.10;99.90;;;;;;5087866;28;20227;-83
2024/01/15 02:46:07;;;;;;;5.60;1.70;;;1.10;99.90;;;;;;5088686;28;20227;-83
2024/01/15 02:48:34;;;;;;;8.33;2.47;;;1.00;99.90;;;;;;5086676;28;20235;-83
2024/01/15 02:51:02;;;;;;;9.70;2.07;;;1.00;99.90;;;;;;5086804;28;20694;-83
2024/01/15 02:53:28;;;;;;;12.60;2.60;;;1.00;99.90;;;;;;5122370;27;20254;-83
2024/01/15 02:55:55;;;;;;;8.63;2.27;;;1.00;99.90;;;;;;5087354;28;20218;-84
2024/01/15 02:58:24;;;;;;;13.53;3.03;;;1.00;99.90;;;;;;5082301;28;20307;-84
2024/01/15 03:00:51;;;;;;;9.57;3.17;;;1.00;99.90;;;;;;5078631;28;20219;-85
2024/01/15 03:03:17;;;;;;;12.53;2.90;;;1.00;99.90;;;;;;5082096;28;20306;-84
2024/01/15 03:05:44;;;;;;;12.47;2.80;;;1.00;99.90;;;;;;5084113;28;20682;-84
2024/01/15 03:08:11;;;;;;;10.17;2.50;;;1.00;99.90;;;;;;5080870;28;20236;-84
2024/01/15 03:10:38;;;;;;;6.63;2.50;;;1.10;99.90;;;;;;5085449;28;20210;-84
2024/01/15 03:13:05;;;;;;;9.67;2.30;;;1.00;99.90;;;;;;5085869;28;20259;-84
2024/01/15 03:15:34;;;;;;;8.73;2.50;;;1.10;99.90;;;;;;5090307;27;20775;-84
2024/01/15 03:18:00;;;;;;;12.90;2.47;;;1.10;99.90;;;;;;5121455;27;20766;-85
2024/01/15 03:20:28;;;;;;;9.27;1.73;;;1.10;99.90;;;;;;5078677;28;20229;-85
2024/01/15 03:22:55;;;;;;;11.20;2.13;;;1.10;99.90;;;;;;5076735;28;20276;-84
2024/01/15 03:25:22;;;;;;;9.33;2.13;;;1.10;99.90;;;;;;5078877;28;20218;-85
2024/01/15 03:27:48;;;;;;;13.00;2.47;;;1.20;99.90;;;;;;5082976;28;20838;-84
2024/01/15 03:30:15;;;;;;;12.57;2.20;;;1.20;99.90;;;;;;5082815;28;20317;-85
2024/01/15 03:32:44;;;;;;;10.17;2.40;;;1.20;99.90;;;;;;5115068;27;20230;-85
2024/01/15 03:35:10;;;;;;;12.03;2.73;;;1.10;99.90;;;;;;5077537;28;20230;-84
2024/01/15 03:37:37;;;;;;;7.70;1.70;;;1.10;99.90;;;;;;5079305;28;20245;-83
2024/01/15 03:40:06;;;;;;;13.00;2.10;;;1.10;99.90;;;;;;5076845;27;20799;-85
2024/01/15 03:42:33;;;;;;;15.87;2.60;;;1.10;99.90;;;;;;5076853;28;20247;-85
2024/01/15 03:45:00;;;;;;;10.53;2.40;;;1.00;99.90;;;;;;5088340;28;20210;-85
2024/01/15 03:47:27;;;;;;;18.37;2.80;;;1.00;99.90;;;;;;5084054;28;20226;-85
2024/01/15 03:49:55;;;;;;;14.63;2.77;;;1.00;99.90;;;;;;5088944;28;20239;-85
2024/01/15 03:52:22;;;;;;;8.83;2.27;;;1.00;99.90;;;;;;5077999;27;20288;-85
2024/01/15 03:54:49;;;;;;;13.30;2.97;;;0.90;99.90;;;;;;5087524;28;20207;-85
2024/01/15 03:57:16;;;;;;;17.37;2.80;;;0.90;99.90;;;;;;5082393;28;20222;-85
2024/01/15 03:59:43;;;;;;;12.73;2.40;;;0.90;99.90;;;;;;5090504;28;20934;-85
2024/01/15 04:02:10;;;;;;;15.70;2.73;;;0.90;99.90;;;;;;5087511;28;20306;-85
2024/01/15 04:04:41;;;;;;;12.43;3.30;;;0.90;99.90;;;;;;5076356;28;20227;-84
2024/01/15 04:07:09;;;;;;;12.27;3.00;;;0.90;99.90;;;;;;5085419;28;20230;-84
2024/01/15 04:09:36;;;;;;;16.33;3.10;;;0.90;99.90;;;;;;5070207;28;20219;-84
2024/01/15 04:12:03;;;;;;;14.50;2.90;;;0.90;99.90;;;;;;5081816;28;20233;-84
2024/01/15 04:14:30;;;;;;;12.47;3.10;;;0.90;99.90;;;;;;5083273;28;20231;-84
2024/01/15 04:16:57;;;;;;;13.20;2.60;;;0.90;99.90;;;;;;5082419;28;20220;-84
2024/01/15 04:19:24;;;;;;;15.17;2.70;;;1.00;99.90;;;;;;5073491;28;20229;-84
2024/01/15 04:21:51;;;;;;;14.53;2.77;;;1.00;99.90;;;;;;5081470;28;20299;-84
2024/01/15 04:24:20;;;;;;;15.63;2.83;;;1.00;99.90;;;;;;5082723;28;20238;-84
2024/01/15 04:26:47;;;;;;;13.77;3.00;;;1.00;99.90;;;;;;5076331;28;20225;-85
2024/01/15 04:29:14;;;;;;;13.47;3.10;;;1.00;99.90;;;;;;5084689;27;20227;-85
2024/01/15 04:31:41;;;;;;;10.30;2.90;;;1.00;99.90;;;;;;5086494;28;20249;-85
2024/01/15 04:34:08;;;;;;;14.20;3.17;;;1.00;99.90;;;;;;5080969;28;20226;-85
2024/01/15 04:36:40;;;;;;;17.90;2.60;;;1.00;99.90;;;;;;5075795;28;20755;-85
2024/01/15 04:39:07;;;;;;;16.17;3.20;;;1.00;99.90;;;;;;5078372;28;20301;-84
2024/01/15 04:41:36;;;;;;;12.37;2.30;;;1.00;99.90;;;;;;5095986;28;20744;-85
2024/01/15 04:44:03;;;;;;;15.97;3.07;;;1.10;99.90;;;;;;5095182;28;20226;-84
2024/01/15 04:46:30;;;;;;;17.17;2.97;;;1.10;99.90;;;;;;5125902;27;20333;-84
2024/01/15 04:48:57;;;;;;;15.33;2.70;;;1.10;99.90;;;;;;5102813;28;20318;-84
2024/01/15 04:51:24;;;;;;;15.17;2.83;;;1.00;99.90;;;;;;5103539;28;20975;-83
2024/01/15 04:53:51;;;;;;;13.77;2.77;;;1.00;99.90;;;;;;5102958;28;20615;-83
2024/01/15 04:56:18;;;;;;;11.47;3.33;;;1.00;99.90;;;;;;5099535;27;20236;-83
2024/01/15 04:58:47;;;;;;;15.50;2.70;;;1.00;99.90;;;;;;5084039;28;20230;-83
2024/01/15 05:01:16;;;;;;;18.83;3.07;;;1.00;99.90;;;;;;5081520;28;20272;-84
2024/01/15 05:03:43;;;;;;;13.17;3.07;;;1.00;99.90;;;;;;5110010;28;20582;-82
2024/01/15 05:06:10;;;;;;;13.97;3.10;;;0.90;99.90;;;;;;5128800;27;20226;-82
2024/01/15 05:08:37;;;;;;;21.03;3.67;;;0.90;99.90;;;;;;5100547;28;20228;-82
2024/01/15 05:11:05;;;;;;;16.03;3.27;;;0.90;99.90;;;;;;5101309;28;20314;-83
2024/01/15 05:13:32;;;;;;;17.17;3.60;;;0.90;99.90;;;;;;5083085;28;20220;-82
2024/01/15 05:16:00;;;;;;;25.67;3.40;;;0.90;99.90;;;;;;5080492;28;20238;-82
2024/01/15 05:18:27;;;;;;;16.93;3.63;;;0.90;99.90;;;;;;5087862;28;20782;-82
2024/01/15 05:20:54;;;;;;;20.30;3.87;;;0.90;99.90;;;;;;5082128;28;20222;-83
2024/01/15 05:23:21;;;;;;;22.87;3.40;;;0.90;99.90;;;;;;5073177;28;20215;-82
2024/01/15 05:25:48;;;;;;;20.77;3.80;;;0.90;99.90;;;;;;5120607;27;20233;-83
2024/01/15 05:28:16;;;;;;;21.47;3.37;;;0.90;99.90;;;;;;5075345;28;20243;-83
2024/01/15 05:30:43;;;;;;;19.27;3.60;;;0.90;99.90;;;;;;5080230;28;20215;-82
2024/01/15 05:33:11;;;;;;;17.57;3.17;;;0.90;99.90;;;;;;5105346;27;20239;-82
2024/01/15 05:35:38;;;;;;;15.87;3.73;;;0.90;99.90;;;;;;5078600;28;20873;-83
2024/01/15 05:38:05;;;;;;;18.27;3.10;;;0.90;99.90;;;;;;5090110;28;20218;-83
2024/01/15 05:40:32;;;;;;;14.37;3.57;;;0.80;99.90;;;;;;5079489;27;20889;-81
2024/01/15 05:42:59;;;;;;;25.30;3.43;;;0.80;99.90;;;;;;5097740;28;20275;-82
2024/01/15 05:45:27;;;;;;;15.07;2.80;;;0.80;99.90;;;;;;5087711;28;20239;-83
2024/01/15 05:47:55;;;;;;;17.10;2.90;;;0.90;99.90;;;;;;5089839;28;20309;-82
2024/01/15 05:50:24;;;;;;;16.10;3.40;;;0.80;99.90;;;;;;5084200;28;20223;-84
2024/01/15 05:52:51;;;;;;;17.77;3.10;;;0.80;99.90;;;;;;5094639;28;20234;-82
2024/01/15 05:55:18;;;;;;;12.97;2.80;;;0.80;99.90;;;;;;5099438;27;20231;-83
2024/01/15 05:57:45;;;;;;;15.63;3.10;;;0.80;99.90;;;;;;5085877;28;20219;-82
2024/01/15 06:00:13;;;;;;;14.67;2.67;;;0.80;99.90;;;;;;5098495;28;20908;-82
2024/01/15 06:02:40;;;;;;;19.97;4.03;;;0.80;99.90;;;;;;5101602;28;20240;-82
2024/01/15 06:05:07;;;;;;;15.73;3.33;;;0.80;99.90;;;;;;5093773;27;20229;-82
2024/01/15 06:07:36;;;;;;;16.13;3.10;;;0.80;99.90;;;;;;5094824;28;20235;-83
2024/01/15 06:10:03;;;;;;;19.30;3.83;;;0.80;99.90;;;;;;5084040;28;20217;-83
2024/01/15 06:12:30;;;;;;;15.67;3.63;;;0.80;99.90;;;;;;5089405;28;20311;-83
2024/01/15 06:14:57;;;;;;;14.07;3.03;;;0.80;99.90;;;;;;5086972;28;20291;-83
2024/01/15 06:17:24;;;;;;;16.93;3.37;;;0.80;99.90;;;;;;5091197;28;20646;-82
2024/01/15 06:19:51;;;;;;;13.77;3.40;;;0.80;99.90;;;;;;5072545;28;20221;-80
2024/01/15 06:22:18;;;;;;;15.20;3.03;;;0.80;99.90;;;;;;5110601;27;20688;-82
2024/01/15 06:24:47;;;;;;;19.37;3.23;;;0.90;99.90;;;;;;5080151;28;20224;-82
2024/01/15 06:27:14;;;;;;;14.63;3.30;;;0.90;99.90;;;;;;5111628;27;20215;-82
2024/01/15 06:29:47;;;;;;;13.27;3.10;;;0.90;99.90;;;;;;5084873;28;20695;-81
2024/01/15 06:32:14;;;;;;;14.70;2.80;;;0.90;99.90;;;;;;5091237;28;20230;-84
2024/01/15 06:34:41;;;;;;;16.00;3.20;;;0.90;99.90;;;;;;5084929;28;20249;-84
2024/01/15 06:37:08;;;;;;;16.63;2.80;;;0.90;99.90;;;;;;5079155;28;20246;-84
2024/01/15 06:39:35;;;;;;;14.97;3.77;;;0.90;99.90;;;;;;5085502;28;20791;-85
2024/01/15 06:42:03;;;;;;;18.20;3.50;;;0.90;99.90;;;;;;5078789;28;20757;-84
2024/01/15 06:44:30;;;;;;;18.87;3.23;;;0.90;99.90;;;;;;5084693;28;20257;-83
2024/01/15 06:47:02;;;;;;;14.40;3.17;;;0.90;99.90;;;;;;5085842;28;21076;-83
2024/01/15 06:49:28;;;;;;;17.60;3.17;;;0.90;99.90;;;;;;5095337;27;20291;-85
2024/01/15 06:51:55;;;;;;;15.07;3.40;;;0.90;99.90;;;;;;5105268;28;20927;-84
2024/01/15 06:54:23;;;;;;;13.80;2.87;;;0.90;99.90;;;;;;5096863;27;20316;-84
2024/01/15 06:56:50;;;;;;;12.07;2.83;;;0.90;99.90;;;;;;5082726;28;20312;-83
2024/01/15 06:59:18;;;;;;;15.37;3.10;;;0.90;99.90;;;;;;5071693;28;20247;-84
2024/01/15 07:01:47;;;;;;;16.13;3.10;;;0.90;99.90;;;;;;5068346;28;20306;-84
2024/01/15 07:04:16;;;;;;;15.57;4.37;;;0.90;99.90;;;;;;5082520;28;20227;-85
2024/01/15 07:06:43;;;;;;;19.60;3.47;;;0.90;99.90;;;;;;5118266;27;20222;-84
2024/01/15 07:09:10;;;;;;;12.90;3.20;;;1.00;99.90;;;;;;5087769;28;20227;-85
2024/01/15 07:11:37;;;;;;;12.47;2.70;;;1.00;99.90;;;;;;5080340;28;20219;-85
2024/01/15 07:14:05;;;;;;;19.43;4.00;;;1.00;99.90;;;;;;5090599;27;20352;-85
2024/01/15 07:16:33;;;;;;;19.33;2.97;;;1.00;99.90;;;;;;5094481;28;20854;-84
2024/01/15 07:19:00;;;;;;;15.40;2.90;;;1.00;99.90;;;;;;5075208;28;20304;-84
2024/01/15 07:21:26;;;;;;;17.53;2.73;;;1.00;99.90;;;;;;5076055;28;20330;-82
2024/01/15 07:23:53;;;;;;;11.93;2.30;;;1.10;99.90;;;;;;5079682;28;20320;-83
2024/01/15 07:26:20;;;;;;;16.17;2.87;;;1.10;99.90;;;;;;5073726;28;20235;-83
2024/01/15 07:28:47;;;;;;;11.17;3.00;;;1.10;99.90;;;;;;5112016;27;20223;-85
2024/01/15 07:31:14;;;;;;;10.43;2.80;;;1.10;99.90;;;;;;5085530;27;20317;-85
2024/01/15 07:33:42;;;;;;;10.77;2.30;;;1.10;99.90;;;;;;5085295;28;20228;-86
2024/01/15 07:36:09;;;;;;;18.40;3.03;;;1.10;99.90;;;;;;5083702;28;20715;-84
2024/01/15 07:38:35;;;;;;;11.90;2.67;;;1.10;99.90;;;;;;5080957;28;20236;-84
2024/01/15 07:41:02;;;;;;;14.07;2.53;;;1.10;99.90;;;;;;5080086;28;20776;-84
2024/01/15 07:43:29;;;;;;;14.03;3.07;;;1.10;99.90;;;;;;5079432;28;20303;-85
2024/01/15 07:45:56;;;;;;;14.07;2.33;;;1.20;99.90;;;;;;5081178;28;20784;-86
2024/01/15 07:48:22;;;;;;;10.67;2.43;;;1.20;99.90;;;;;;5081282;28;20219;-84
2024/01/15 07:50:50;;;;;;;15.07;2.37;;;1.20;99.90;;;;;;5086126;28;20308;-84
2024/01/15 07:53:17;;;;;;;8.90;1.90;;;1.20;99.90;;;;;;5124718;27;20883;-85
2024/01/15 07:55:45;;;;;;;8.27;2.20;;;1.30;99.90;;;;;;5119549;27;20247;-84
2024/01/15 07:58:12;;;;;;;13.70;2.20;;;1.30;99.90;;;;;;5103402;28;20224;-85
2024/01/15 08:00:39;;;;;;;9.30;2.87;;;1.30;99.90;;;;;;5109027;28;20225;-84
2024/01/15 08:03:06;;;;;;;8.77;2.00;;;1.30;99.90;;;;;;5121359;27;20284;-81
2024/01/15 08:05:33;;;;;;;9.30;2.37;;;1.30;99.90;;;;;;5105413;28;20223;-84
2024/01/15 08:08:01;;;;;;;14.73;2.30;;;1.30;99.90;;;;;;5139663;27;20228;-84
2024/01/15 08:10:28;;;;;;;9.20;2.20;;;1.30;99.90;;;;;;5103760;28;20219;-83
2024/01/15 08:12:55;;;;;;;9.60;2.80;;;1.40;99.90;;;;;;5080179;28;20642;-84
2024/01/15 08:15:22;;;;;;;12.73;1.83;;;1.40;99.90;;;;;;5085904;27;20228;-84
2024/01/15 08:17:49;;;;;;;11.33;2.00;;;1.40;99.90;;;;;;5090295;27;20301;-84
2024/01/15 08:20:16;;;;;;;7.50;1.63;;;1.40;99.90;;;;;;5103403;28;20313;-83
2024/01/15 08:22:43;;;;;;;10.43;2.37;;;1.40;99.90;;;;;;5090926;28;20724;-86
2024/01/15 08:25:12;;;;;;;15.10;2.10;;;1.40;99.90;;;;;;5083244;28;20297;-83
2024/01/15 08:27:39;;;;;;;10.07;2.37;;;1.40;99.90;;;;;;5078736;28;20278;-83
2024/01/15 08:30:07;;;;;;;9.50;2.23;;;1.50;99.90;;;;;;5081898;28;20238;-83
2024/01/15 08:32:36;;;;;;;12.50;2.23;;;1.50;99.90;;;;;;5087464;28;20218;-83
2024/01/15 08:35:04;;;;;;;9.63;2.20;;;1.50;99.90;;;;;;5090763;28;20847;-83
2024/01/15 08:37:30;;;;;;;10.70;2.00;;;1.60;99.90;;;;;;5086094;28;20238;-84
2024/01/15 08:39:57;;;;;;;8.73;2.27;;;1.60;99.90;;;;;;5087336;28;20280;-83
2024/01/15 08:42:25;;;;;;;18.77;2.30;;;1.60;99.90;;;;;;5085461;27;20234;-83
2024/01/15 08:44:52;;;;;;;8.07;2.03;;;1.60;99.90;;;;;;5089076;28;20750;-83
2024/01/15 08:47:18;;;;;;;7.87;1.57;;;1.60;99.90;;;;;;5089238;27;20222;-83
2024/01/15 08:49:46;;;;;;;8.33;1.93;;;1.60;99.90;;;;;;5087180;28;20227;-82
2024/01/15 08:52:13;;;;;;;14.37;3.00;;;1.70;99.90;;;;;;5115819;27;20241;-82
2024/01/15 08:54:40;;;;;;;9.43;2.30;;;1.70;99.90;;;;;;5081615;28;20289;-82
2024/01/15 08:57:07;;;;;;;10.50;1.90;;;1.70;99.90;;;;;;5098231;28;20234;-84
2024/01/15 08:59:35;;;;;;;6.10;1.60;;;1.70;99.90;;;;;;5084812;28;20806;-82
2024/01/15 09:02:02;;;;;;;5.90;1.83;;;1.80;99.90;;;;;;5075620;28;20333;-82
2024/01/15 09:04:28;;;;;;;9.23;2.30;;;1.80;99.90;;;;;;5091812;28;20793;-83
2024/01/15 09:06:55;;;;;;;7.60;2.00;;;1.80;99.90;;;;;;5090888;28;20307;-83
2024/01/15 09:09:22;;;;;;;9.03;1.70;;;1.80;99.90;;;;;;5081163;28;20245;-83
2024/01/15 09:11:49;;;;;;;8.70;1.83;;;1.80;99.90;;;;;;5070833;28;20242;-84
2024/01/15 09:14:15;;;;;;;7.57;1.87;;;1.80;99.90;;;;;;5127798;27;20220;-83
2024/01/15 09:16:44;;;;;;;12.67;1.70;;;1.80;99.90;;;;;;5093285;28;20231;-83
2024/01/15 09:19:10;;;;;;;9.73;1.93;;;1.70;99.90;;;;;;5078693;28;20256;-83
2024/01/15 09:21:39;;;;;;;13.37;1.90;;;1.70;99.90;;;;;;5078493;28;20313;-83
2024/01/15 09:24:06;;;;;;;11.53;1.67;;;1.60;99.90;;;;;;5072508;27;20227;-83
2024/01/15 09:26:33;;;;;;;10.03;2.10;;;1.60;99.90;;;;;;5077354;28;20333;-83
2024/01/15 09:29:01;;;;;;;10.40;2.20;;;1.50;99.90;;;;;;5085872;28;20215;-82
2024/01/15 09:31:27;;;;;;;9.83;2.23;;;1.50;99.90;;;;;;5077176;28;20230;-82
2024/01/15 09:33:58;;;;;;;11.30;2.07;;;1.40;99.90;;;;;;5088246;27;20219;-82
2024/01/15 09:36:25;;;;;;;8.23;2.13;;;1.40;99.90;;;;;;5103020;27;20286;-81
2024/01/15 09:38:52;;;;;;;7.50;2.00;;;1.40;99.90;;;;;;5084890;28;20227;-82
2024/01/15 09:41:19;;;;;;;6.63;1.93;;;1.30;99.90;;;;;;5084031;28;20312;-80
2024/01/15 09:43:46;;;;;;;9.17;2.50;;;1.30;99.90;;;;;;5081491;28;20298;-80
2024/01/15 09:46:13;;;;;;;7.53;1.70;;;1.30;99.90;;;;;;5087710;28;20254;-82
2024/01/15 09:48:40;;;;;;;7.40;1.97;;;1.30;99.90;;;;;;5076233;28;20234;-81
2024/01/15 09:51:10;;;;;;;12.33;2.40;;;1.30;99.90;;;;;;5081056;28;20302;-82
2024/01/15 09:53:37;;;;;;;9.40;2.07;;;1.30;99.90;;;;;;5084940;28;20230;-81
2024/01/15 09:56:06;;;;;;;7.70;2.07;;;1.30;99.90;;;;;;5085366;28;20226;-80
2024/01/15 09:58:33;;;;;;;16.90;2.43;;;1.30;99.90;;;;;;5085710;27;20225;-82
2024/01/15 10:01:01;;;;;;;7.00;1.80;;;1.20;99.90;;;;;;5090036;27;20707;-80
2024/01/15 10:03:27;;;;;;;10.50;2.10;;;1.20;99.90;;;;;;5099113;28;20830;-82
2024/01/15 10:05:55;;;;;;;10.33;2.17;;;1.20;99.90;;;;;;5102110;27;20307;-82
2024/01/15 10:08:24;;;;;;;8.30;1.60;;;1.20;99.90;;;;;;5082226;28;20235;-82
2024/01/15 10:10:51;;;;;;;7.30;1.87;;;1.20;99.90;;;;;;5088654;27;20223;-82
2024/01/15 10:13:18;;;;;;;9.47;1.83;;;1.20;99.90;;;;;;5093135;28;20238;-81
2024/01/15 10:15:46;;;;;;;6.40;1.50;;;1.20;99.90;;;;;;5096619;28;20226;-82
2024/01/15 10:18:13;;;;;;;9.73;2.13;;;1.20;99.90;;;;;;5084289;28;20312;-81
2024/01/15 10:20:40;;;;;;;8.80;2.20;;;1.20;99.90;;;;;;5087024;28;20275;-81
2024/01/15 10:23:07;;;;;;;11.77;2.10;;;1.20;99.90;;;;;;5078334;28;20412;-83
2024/01/15 10:25:36;;;;;;;13.73;1.87;;;1.20;99.90;;;;;;5097663;28;20265;-83
2024/01/15 10:28:05;;;;;;;8.13;2.13;;;1.20;99.90;;;;;;5086266;28;20232;-81
2024/01/15 10:30:33;;;;;;;9.47;2.00;;;1.20;99.90;;;;;;5088071;28;20304;-82
2024/01/15 10:33:01;;;;;;;11.10;2.00;;;1.10;99.90;;;;;;5106698;27;20309;-82
2024/01/15 10:35:29;;;;;;;10.77;2.63;;;1.10;99.90;;;;;;5115560;27;20567;-83
2024/01/15 10:37:56;;;;;;;9.80;1.73;;;1.10;99.90;;;;;;5113113;27;20214;-82
2024/01/15 10:40:23;;;;;;;12.60;1.97;;;1.10;99.90;;;;;;5085537;27;20345;-83
2024/01/15 10:42:51;;;;;;;9.47;1.90;;;1.20;99.90;;;;;;5108892;27;20304;-83
2024/01/15 10:45:18;;;;;;;9.40;1.97;;;1.20;99.90;;;;;;5088870;27;20274;-82
2024/01/15 10:47:45;;;;;;;8.13;2.20;;;1.20;99.90;;;;;;5086614;28;20314;-82
2024/01/15 10:50:12;;;;;;;8.30;1.73;;;1.20;99.90;;;;;;5077526;28;21086;-81
2024/01/15 10:52:41;;;;;;;7.13;2.03;;;1.20;99.90;;;;;;5078576;28;20233;-83
2024/01/15 10:55:09;;;;;;;9.60;1.50;;;1.30;99.90;;;;;;5097963;28;20309;-82
2024/01/15 10:57:37;;;;;;;5.93;1.47;;;1.30;99.90;;;;;;5097715;27;20597;-82
2024/01/15 11:00:07;;;;;;;6.63;1.40;;;1.30;99.90;;;;;;5078405;28;20245;-83
2024/01/15 11:02:35;;;;;;;5.17;1.50;;;1.30;99.90;;;;;;5084685;28;20317;-84
2024/01/15 11:05:02;;;;;;;4.07;1.23;;;1.40;99.90;;;;;;5083416;28;20284;-83
2024/01/15 11:07:31;;;;;;;5.03;1.50;;;1.40;99.90;;;;;;5126006;27;20309;-84
2024/01/15 11:09:58;;;;;;;6.67;1.90;;;1.40;99.90;;;;;;5122249;27;20226;-81
2024/01/15 11:12:26;;;;;;;6.40;1.70;;;1.40;99.90;;;;;;5089841;28;21856;-82
2024/01/15 11:14:54;;;;;;;6.57;1.60;;;1.40;99.90;;;;;;5082377;28;20611;-81
2024/01/15 11:17:22;;;;;;;7.20;1.50;;;1.50;99.90;;;;;;5115507;27;20229;-80
2024/01/15 11:19:51;;;;;;;7.93;1.50;;;1.50;99.90;;;;;;5086408;28;20240;-80
2024/01/15 11:22:48;;;;;;;5.30;1.30;;;1.50;99.90;;;;;;5118076;27;20231;-80
2024/01/15 11:25:15;;;;;;;5.07;1.30;;;1.50;99.90;;;;;;5079019;28;20226;-81
2024/01/15 11:27:43;;;;;;;7.50;1.70;;;1.50;99.90;;;;;;5080988;28;20230;-82
2024/01/15 11:30:12;;;;;;;3.43;1.30;;;1.60;99.90;;;;;;5079234;28;20223;-82
2024/01/15 11:32:42;;;;;;;3.70;1.60;;;1.60;99.90;;;;;;5095456;28;20228;-81
2024/01/15 11:35:09;;;;;;;6.60;1.10;;;1.60;99.90;;;;;;5096314;28;20704;-81
2024/01/15 11:37:58;;;;;;;3.53;1.40;;;1.60;99.90;;;;;;5103437;28;20221;-81
2024/01/15 11:40:39;;;;;;;6.33;1.20;;;1.60;99.90;;;;;;5083756;28;20728;-80
2024/01/15 11:43:06;;;;;;;3.00;1.10;;;1.70;99.90;;;;;;5085344;27;20225;-81
2024/01/15 11:45:34;;;;;;;9.83;1.40;;;1.70;99.90;;;;;;5107623;28;20675;-83
2024/01/15 11:48:16;;;;;;;5.77;1.30;;;1.70;99.90;;;;;;5100088;27;20429;-81
2024/01/15 11:50:44;;;;;;;4.57;1.50;;;1.70;99.90;;;;;;5087693;28;20219;-81
2024/01/15 11:53:28;;;;;;;6.53;1.83;;;1.70;99.90;;;;;;5097818;28;20230;-80
2024/01/15 11:55:59;;;;;;;7.07;1.90;;;1.80;99.90;;;;;;5090025;28;20224;-81
2024/01/15 11:58:26;;;;;;;7.07;1.70;;;1.80;99.90;;;;;;5084574;28;20224;-81
2024/01/15 12:00:54;;;;;;;8.50;2.40;;;1.90;99.90;;;;;;5080358;28;20306;-81
2024/01/15 12:03:23;;;;;;;5.17;2.00;;;1.90;99.90;;;;;;5092626;28;20251;-81
2024/01/15 12:05:51;;;;;;;4.37;1.47;;;2.00;99.90;;;;;;5081698;28;20229;-82
2024/01/15 12:08:22;;;;;;;8.43;1.63;;;2.10;99.90;;;;;;5113162;27;20254;-82
2024/01/15 12:10:49;;;;;;;11.40;2.57;;;2.20;99.90;;;;;;5085138;28;20278;-81
2024/01/15 12:13:17;;;;;;;4.60;1.87;;;2.20;99.90;;;;;;5076304;28;20318;-81
2024/01/15 12:15:45;;;;;;;6.80;1.80;;;2.20;99.90;;;;;;5080223;28;20764;-81
2024/01/15 12:18:14;;;;;;;5.73;1.73;;;2.30;99.90;;;;;;5073879;28;20784;-81
2024/01/15 12:20:43;;;;;;;6.33;1.50;;;2.30;99.90;;;;;;5111444;27;20219;-82
2024/01/15 12:23:11;;;;;;;4.60;1.40;;;2.30;99.90;;;;;;5082304;27;20272;-82
2024/01/15 12:25:38;;;;;;;5.47;1.73;;;2.30;99.90;;;;;;5097547;28;20219;-81
2024/01/15 12:28:06;;;;;;;6.53;1.80;;;2.40;99.90;;;;;;5106916;28;20322;-82
2024/01/15 12:30:35;;;;;;;8.70;1.97;;;2.40;99.90;;;;;;5086659;28;20252;-81
2024/01/15 12:33:04;;;;;;;6.73;1.70;;;2.40;99.90;;;;;;5089635;28;20223;-81
2024/01/15 12:35:31;;;;;;;6.57;2.00;;;2.40;99.90;;;;;;5087442;28;20576;-82
2024/01/15 12:38:02;;;;;;;6.23;2.00;;;2.40;99.90;;;;;;5115101;27;20227;-81
2024/01/15 12:40:28;;;;;;;6.50;1.60;;;2.40;99.90;;;;;;5121140;27;20268;-81
2024/01/15 12:42:56;;;;;;;2.87;1.50;;;2.40;99.90;;;;;;5092563;28;20223;-81
2024/01/15 12:45:23;;;;;;;6.97;1.90;;;2.40;99.90;;;;;;5095550;28;21442;-81
2024/01/15 12:47:51;;;;;;;7.20;1.70;;;2.40;99.90;;;;;;5099548;28;20275;-81
2024/01/15 12:50:17;;;;;;;5.40;1.80;;;2.50;99.90;;;;;;5131660;27;20241;-81
2024/01/15 12:52:44;;;;;;;8.00;1.93;;;2.40;99.90;;;;;;5075968;28;20947;-81